Xique-Xique, Brazil
Current Conditions -  °F | °C
As of 1:00 PM on Thursday 30 Oct 2014 (Local Time) from SBPL Reporting Station
Few Clouds Few Clouds  
Wind Chill: 95°   Ceiling: Unl
Heat Index: 95°   Visibility: 6mi
Dew Point: 59°   Wind: 14mph
Humidity: 30%   Direction: 110°ESE
Pressure: 29.91"   Gusts: NA
Location:  10.82°S, 42.73°W
Report Text: SBPL 301600Z 11012KT 9999 FEW030 35/15 Q1013
Loading
Personal Weather Stations






























Interactive Weather Map
Tropical Storm Tracking
New forecast layout! Learn more

10-Day Weather Forecast

Advertisements
Track Severe Weather on mobile